x

Northern Hawaii One - 245nm Ne Of Honolulu Hi (51000) Wave Buoy

5:50pm - Thu 25th Aug 2016 All times are HST. -10 hours from GMT.

  • Sig Wave height 4.9ft
  • Swell Direction
  • Peak Period 14s
  • Average Period 5s
  • Wind
    18mph, 20mph gusts
  • Sea Temp 78°f
  • Air Temp 78°f
  • Sea Pressure 1018.2mb
  • Northern Hawaii One - 245nm Ne Of Honolulu Hi
  • Northern Hawaii One - 245nm Ne Of Honolulu Hi

More Historic Weather Station data

Upgrade to MSW Pro to gain access to the past 30 days of data for over 8000 Wavebouys and Weather Stations around the globe.

Join Pro

Comparision Forecast

View Surf forecast
   
Thu 08/25 5:50pm 5ft 14s 5s 18 20 mph 1018.2mb 78f 78f
4:50pm 5ft 14s 6s 18 22 mph 1018mb 78f 78f
3:50pm 4.5ft 14s 5s 18 20 mph 1018.3mb 78f 78f
2:50pm 4.5ft 14s 5s 16 18 mph 1018.7mb 78f 78f
1:50pm 4.5ft 15s 6s 16 20 mph 1019.1mb 78f 77f
12:50pm 4.5ft 15s 6s 11
mph
1019.7mb 78f 78f
11:50am 4.5ft 15s 6s 11 13 mph 1020.2mb 78f 77f
10:50am 4.5ft 6s 6s 13 16 mph 1020.5mb 78f 77f
9:50am 4.5ft 6s 6s 13 18 mph 1020.7mb 78f 77f
8:50am 4.5ft 14s 6s 11 13 mph 1020.7mb 78f 78f
7:50am 4.5ft 14s 6s 11 13 mph 1020.4mb 78f 78f
6:50am 4.5ft 14s 6s 11 13 mph 1020.3mb 78f 77f
5:50am 4.5ft 15s 6s 9 11 mph 1020mb 78f 77f
4:50am 4.5ft 15s 6s 11
mph
1019.5mb 78f 77f
3:50am 4.5ft 13s 6s 11 16 mph 1019.2mb 78f 77f
2:50am 4.5ft 15s 6s 13 16 mph 1019.1mb 78f 77f
1:50am 4.5ft 16s 6s 11 13 mph 1019.4mb 78f 78f
12:50am 4.5ft 16s 6s 13 16 mph 1019.6mb 78f 78f
Wed 08/24 11:50pm 4.5ft 15s 5s 16 18 mph 1019.7mb 78f 78f
10:50pm 4.5ft 14s 6s 16 18 mph 1020.1mb 78f 78f
9:50pm 4.5ft 9s 5s 13 18 mph 1020mb 78f 78f
8:50pm 4.5ft 14s 6s 16
mph
1019.5mb 78f 78f
7:50pm 4.5ft 8s 6s 13 16 mph 1019mb 78f 78f
6:50pm 4.5ft 8s 6s 13 16 mph 1018.2mb 78f 78f
4:50pm 4.5ft 15s 6s 13 16 mph 1017.6mb 78f 79f
3:50pm 4.5ft 14s 6s 13 16 mph 1017.4mb 79f 78f
2:50pm 4.5ft 9s 5s 13 18 mph 1017.3mb 79f 78f
1:50pm 4.5ft 8s 6s 13 16 mph 1017.7mb 79f 78f
12:50pm 4.5ft 8s 5s 13 16 mph 1017.9mb 79f 78f
11:50am 4.5ft 8s 5s 16 18 mph 1017.8mb 79f 78f
10:50am 4.5ft 8s 5s 16 18 mph 1018.2mb 78f 78f
9:50am 4.5ft 9s 5s 18 20 mph 1018mb 78f 78f
8:50am 4.5ft 9s 5s 16 20 mph 1017.8mb 78f 78f
7:50am 4.5ft 9s 5s 16 18 mph 1017.8mb 78f 78f
6:50am 4.5ft 9s  -  16 18 mph 1017.4mb 78f 78f
5:50am 4.5ft 10s 5s 13 16 mph 1016.7mb 78f 78f
4:50am 4.5ft 9s 6s 18 20 mph 1016.2mb 78f 77f
3:50am 4.5ft 10s 6s 18 20 mph 1015.8mb 78f 78f
2:50am 4.5ft 10s 6s 13
mph
1016mb 78f 78f
1:50am 4.5ft 10s 5s 13 16 mph 1016mb 78f 78f
Tue 08/23 11:50pm 4.5ft 10s 6s 16 18 mph 1016.3mb 78f 78f
10:50pm 4.5ft 9s 6s 18 20 mph 1016.3mb 78f 78f
9:50pm 4.5ft 10s 6s 16 18 mph 1016.3mb 78f 78f
8:50pm 4.5ft 10s 6s 13 18 mph 1016.1mb 79f 78f
7:50pm 4ft 10s 6s 11 13 mph 1015.8mb 79f 78f
6:50pm 5ft 10s 7s 11 13 mph 1015.5mb 79f 78f
5:50pm 4ft 10s 7s 13 18 mph 1015.2mb 79f 78f
4:50pm 4.5ft 10s 7s 9 11 mph 1014.8mb 79f 78f
3:50pm 4ft 10s 7s 9 11 mph 1014.6mb 79f 78f
2:50pm 4.5ft 10s 7s 11 13 mph 1014.6mb 79f 78f
1:50pm 4.5ft 11s 7s 9 11 mph 1014.3mb 79f 78f
12:50pm 4.5ft 10s 7s 9 11 mph 1014.8mb 78f 78f
11:50am 4.5ft 11s 7s 11 13 mph 1015.1mb 78f 77f
10:50am 4.5ft 10s 8s 11 13 mph 1015.2mb 78f 77f
9:50am 4.5ft 11s 7s 11
mph
1015.3mb 78f 77f
8:50am 4.5ft 11s 7s 9 11 mph 1015.2mb 78f 77f
7:50am 4.5ft 10s 7s 7 9 mph 1015mb 78f 77f
6:50am 5ft 9s 7s 7 9 mph 1014.5mb 77f 77f
5:50am 5ft 11s 8s 9 11 mph 1013.8mb 78f 76f
4:50am 4.5ft 11s 8s 9
mph
1013.5mb 78f 76f
3:50am 4.5ft 11s 7s 7 9 mph 1013.6mb 78f 76f
2:50am 4.5ft 9s 8s 7 9 mph 1013.6mb 78f 75f
1:50am 4.5ft 11s 8s 9
mph
1013.7mb 78f 76f
12:50am 5ft 11s 8s 9 11 mph 1013.9mb 78f 76f
Mon 08/22 11:50pm 4.5ft 10s 8s 11 13 mph 1014.4mb 78f 76f
10:50pm 5ft 10s 8s 9 11 mph 1014.7mb 78f 77f
9:50pm 5ft 11s 7s 9 11 mph 1014.8mb 78f 77f
8:50pm 5ft 11s 8s 9 11 mph 1014.6mb 78f 77f
7:50pm 4.5ft 10s 7s 11 13 mph 1014.2mb 78f 77f
6:50pm 5ft 10s 8s 7 9 mph 1013.8mb 78f 77f
5:50pm 5ft 10s 8s 9 11 mph 1013.5mb 78f 77f
4:50pm 4.5ft 11s 8s 9 13 mph 1013.2mb 78f 77f
3:50pm 4.5ft 10s 7s 9 11 mph 1013mb 78f 77f
2:50pm 5ft 10s 7s 9 11 mph 1013.2mb 78f 77f
1:50pm 4.5ft 11s 7s 9 11 mph 1013.7mb 78f 76f
12:50pm 5ft 11s 7s 11 13 mph 1014.3mb 78f 76f
11:50am 4.5ft 10s 7s 11 13 mph 1014.8mb 78f 76f
10:50am 5ft 11s 7s 11 13 mph 1015.2mb 77f 76f
9:50am 4.5ft 11s 7s 11 13 mph 1015.3mb 77f 76f
8:50am 4.5ft 11s 7s 11 13 mph 1015.2mb 77f 76f
7:50am 5ft 11s 7s 11 13 mph 1014.9mb 77f 76f
6:50am 5ft 9s 7s 9 11 mph 1014.8mb 77f 76f
5:50am 4.5ft 10s 7s 9 11 mph 1014.3mb 77f 76f